Time;durP1;ratioP1;P1;durP2;ratioP2;P2;SDS_P1;SDS_P2;PMS_P1;PMS_P2;Temp;Humidity;BMP_temperature;BMP_pressure;BME280_temperature;BME280_humidity;BME280_pressure;Samples;Min_cycle;Max_cycle;Signal;HPM_P1;HPM_P2
2023/01/02 00:01:40;;;;;;;10.67;5.33;;;;;;;13.87;65.71;100650.78;5056186;28;20213;-69
2023/01/02 00:04:07;;;;;;;13.60;4.90;;;;;;;13.85;66.04;100647.47;5057345;28;20226;-68
2023/01/02 00:06:36;;;;;;;13.47;5.47;;;;;;;13.80;65.95;100633.81;5053903;28;20208;-64
2023/01/02 00:09:07;;;;;;;9.37;4.30;;;;;;;13.77;66.14;100631.44;5051952;28;20215;-67
2023/01/02 00:11:35;;;;;;;15.30;5.50;;;;;;;13.74;66.21;100621.13;5055187;28;20586;-68
2023/01/02 00:14:02;;;;;;;15.77;5.17;;;;;;;13.77;65.88;100623.47;5049737;28;20578;-67
2023/01/02 00:16:30;;;;;;;15.17;4.97;;;;;;;13.82;65.80;100631.78;5051660;28;20298;-69
2023/01/02 00:18:58;;;;;;;11.13;4.73;;;;;;;13.80;65.63;100623.13;5054105;28;20207;-69
2023/01/02 00:21:26;;;;;;;15.37;5.37;;;;;;;13.79;65.41;100640.13;5054134;28;20209;-67
2023/01/02 00:23:53;;;;;;;8.13;4.10;;;;;;;13.80;65.38;100632.97;5051452;28;20238;-67
2023/01/02 00:26:22;;;;;;;10.20;4.90;;;;;;;13.80;65.13;100620.47;5050195;28;20391;-69
2023/01/02 00:28:50;;;;;;;13.70;5.07;;;;;;;13.82;65.20;100618.44;5051666;28;20204;-68
2023/01/02 00:31:18;;;;;;;14.90;5.13;;;;;;;13.79;65.27;100621.47;5053532;28;20588;-69
2023/01/02 00:33:46;;;;;;;11.57;5.13;;;;;;;13.88;64.86;100620.47;5051393;28;20214;-69
2023/01/02 00:36:13;;;;;;;8.60;5.00;;;;;;;13.89;64.67;100621.31;5053786;28;20310;-66
2023/01/02 00:38:41;;;;;;;13.63;5.57;;;;;;;13.88;64.60;100615.16;5053665;28;20208;-66
2023/01/02 00:41:10;;;;;;;11.03;5.17;;;;;;;13.87;64.70;100609.97;5051194;28;20205;-68
2023/01/02 00:43:39;;;;;;;7.90;4.23;;;;;;;13.89;64.57;100614.16;5051426;28;20255;-66
2023/01/02 00:46:07;;;;;;;11.53;4.40;;;;;;;13.92;64.32;100615.63;5050878;28;20206;-69
2023/01/02 00:48:39;;;;;;;12.00;3.90;;;;;;;13.93;64.25;100615.47;5051564;28;20731;-66
2023/01/02 00:51:07;;;;;;;10.10;4.93;;;;;;;13.92;64.28;100621.81;5053167;28;20203;-64
2023/01/02 00:53:35;;;;;;;10.83;4.50;;;;;;;13.93;63.96;100612.81;5049895;28;20300;-66
2023/01/02 00:56:03;;;;;;;11.27;4.23;;;;;;;13.92;63.75;100611.13;5053575;28;20688;-69
2023/01/02 00:58:31;;;;;;;10.47;4.00;;;;;;;13.87;64.09;100610.81;5050427;28;20206;-70
2023/01/02 01:01:00;;;;;;;13.63;4.20;;;;;;;13.85;64.44;100611.97;5052689;28;20271;-69
2023/01/02 01:03:28;;;;;;;10.00;4.40;;;;;;;13.83;64.13;100606.78;5054331;28;20209;-68
2023/01/02 01:05:56;;;;;;;12.50;4.60;;;;;;;13.85;63.79;100610.13;5053552;28;21371;-70
2023/01/02 01:08:24;;;;;;;11.40;4.50;;;;;;;13.90;63.83;100599.78;5049125;28;20308;-67
2023/01/02 01:10:51;;;;;;;10.17;4.23;;;;;;;13.91;63.80;100603.28;5052909;28;20257;-67
2023/01/02 01:13:19;;;;;;;13.13;5.77;;;;;;;13.92;63.54;100595.13;5054352;28;20330;-66
2023/01/02 01:15:47;;;;;;;14.40;4.77;;;;;;;13.97;63.55;100585.81;5056462;28;20214;-68
2023/01/02 01:18:16;;;;;;;8.77;4.53;;;;;;;13.97;63.55;100589.31;5055169;28;20210;-67
2023/01/02 01:20:44;;;;;;;8.67;4.60;;;;;;;13.97;63.49;100596.47;5056064;28;20218;-67
2023/01/02 01:23:11;;;;;;;9.40;4.20;;;;;;;13.99;63.24;100594.47;5057570;28;22454;-70
2023/01/02 01:25:39;;;;;;;9.50;4.30;;;;;;;13.99;63.19;100594.47;5057174;28;20248;-66
2023/01/02 01:28:07;;;;;;;12.70;4.43;;;;;;;13.98;63.11;100592.81;5058638;28;20218;-67
2023/01/02 01:30:34;;;;;;;8.83;4.37;;;;;;;13.87;63.46;100597.47;5054563;28;20222;-68
2023/01/02 01:33:02;;;;;;;8.07;4.30;;;;;;;13.88;63.45;100588.50;5060351;28;20217;-68
2023/01/02 01:35:33;;;;;;;11.03;4.47;;;;;;;13.86;63.67;100590.47;5064131;28;20509;-68
2023/01/02 01:38:00;;;;;;;12.93;4.53;;;;;;;13.83;63.95;100590.81;5063332;28;20263;-68
2023/01/02 01:40:28;;;;;;;13.00;4.23;;;;;;;13.79;64.16;100588.66;5060262;28;20206;-66
2023/01/02 01:42:56;;;;;;;10.60;5.07;;;;;;;13.86;63.66;100595.81;5059636;28;20811;-67
2023/01/02 01:45:27;;;;;;;11.27;4.30;;;;;;;13.88;64.00;100593.00;5057817;28;20244;-67
2023/01/02 01:48:00;;;;;;;9.97;4.80;;;;;;;13.86;64.03;100587.81;5059314;28;20219;-68
2023/01/02 01:50:32;;;;;;;11.50;4.40;;;;;;;13.83;64.00;100597.97;5056739;28;20626;-67
2023/01/02 01:53:04;;;;;;;10.30;4.97;;;;;;;13.80;64.15;100591.16;5059199;28;20366;-68
2023/01/02 01:55:35;;;;;;;8.57;4.03;;;;;;;13.87;63.73;100597.47;5059779;28;20234;-66
2023/01/02 01:58:07;;;;;;;10.00;4.97;;;;;;;13.87;64.17;100601.97;5059628;28;20322;-68
2023/01/02 02:00:36;;;;;;;8.43;3.87;;;;;;;13.86;64.06;100597.66;5057533;28;20209;-65
2023/01/02 02:03:10;;;;;;;11.80;4.00;;;;;;;13.87;63.81;100586.00;5058600;28;20224;-67
2023/01/02 02:05:42;;;;;;;12.43;4.17;;;;;;;13.79;64.50;100581.50;5059930;28;20256;-67
2023/01/02 02:08:15;;;;;;;10.80;4.50;;;;;;;13.76;64.59;100589.81;5059855;28;20311;-65
2023/01/02 02:10:43;;;;;;;12.10;4.93;;;;;;;13.78;64.40;100576.31;5057095;28;20218;-65
2023/01/02 02:13:11;;;;;;;11.03;4.40;;;;;;;13.75;64.53;100572.16;5058820;28;20472;-67
2023/01/02 02:15:53;;;;;;;9.50;4.03;;;;;;;13.77;64.48;100575.47;5054496;28;20211;-68
2023/01/02 02:18:33;;;;;;;10.07;4.20;;;;;;;13.78;64.56;100569.16;5056053;28;20419;-68
2023/01/02 02:21:23;;;;;;;9.77;4.13;;;;;;;13.81;64.83;100571.47;5057993;28;20211;-68
2023/01/02 02:24:17;;;;;;;11.83;4.40;;;;;;;13.71;65.23;100576.16;5052266;28;20223;-67
2023/01/02 02:27:10;;;;;;;12.50;4.80;;;;;;;13.70;65.24;100563.84;5033239;28;20210;-68
2023/01/02 02:29:58;;;;;;;9.97;4.47;;;;;;;13.76;65.30;100551.66;5037960;28;20216;-67
2023/01/02 02:32:32;;;;;;;10.97;4.17;;;;;;;13.73;65.17;100560.81;5034979;28;20229;-66
2023/01/02 02:35:08;;;;;;;14.13;4.67;;;;;;;13.68;65.66;100565.81;5031915;28;20649;-65
2023/01/02 02:37:44;;;;;;;11.80;4.23;;;;;;;13.75;65.47;100556.16;5033987;28;20582;-66
2023/01/02 02:40:19;;;;;;;7.80;4.30;;;;;;;13.79;64.97;100567.34;5031377;28;20216;-67
2023/01/02 02:42:59;;;;;;;8.80;4.40;;;;;;;13.78;65.23;100563.84;5028218;28;20577;-67
2023/01/02 02:45:36;;;;;;;10.03;4.00;;;;;;;13.73;65.37;100552.81;5030243;28;20247;-68
2023/01/02 02:48:12;;;;;;;11.67;4.70;;;;;;;13.74;65.08;100559.81;5017249;28;20337;-68
2023/01/02 02:50:45;;;;;;;13.17;4.83;;;;;;;13.77;64.89;100558.66;5026240;28;20254;-67
2023/01/02 02:53:20;;;;;;;12.10;3.73;;;;;;;13.76;65.03;100555.16;5033889;28;20207;-67
2023/01/02 02:55:51;;;;;;;10.33;4.40;;;;;;;13.77;64.97;100554.16;5030182;28;20763;-68
2023/01/02 02:58:22;;;;;;;16.70;4.30;;;;;;;13.76;64.94;100560.50;5029364;28;20232;-68
2023/01/02 03:01:01;;;;;;;12.20;4.23;;;;;;;13.67;65.27;100545.50;5031939;28;20218;-68
2023/01/02 03:03:29;;;;;;;7.97;4.37;;;;;;;13.64;65.41;100534.31;5027502;28;20215;-68
2023/01/02 03:06:18;;;;;;;10.03;4.00;;;;;;;13.67;65.41;100521.50;5028226;28;20718;-69
2023/01/02 03:08:56;;;;;;;13.70;5.33;;;;;;;13.63;65.82;100517.53;5025744;28;20215;-68
2023/01/02 03:11:34;;;;;;;12.27;4.37;;;;;;;13.65;65.91;100523.50;5010397;28;20835;-66
2023/01/02 03:14:07;;;;;;;13.83;4.80;;;;;;;13.63;65.90;100536.19;5027138;28;20210;-65
2023/01/02 03:16:39;;;;;;;10.90;4.13;;;;;;;13.62;65.96;100552.34;5031473;28;20196;-65
2023/01/02 03:19:10;;;;;;;12.03;4.70;;;;;;;13.55;66.08;100541.47;5031072;28;20250;-65
2023/01/02 03:21:43;;;;;;;14.83;4.23;;;;;;;13.59;66.30;100532.19;5026899;28;20208;-65
2023/01/02 03:24:13;;;;;;;10.63;4.13;;;;;;;13.60;65.79;100538.34;5018277;28;20561;-68
2023/01/02 03:26:45;;;;;;;9.67;4.20;;;;;;;13.57;66.08;100542.16;5019859;28;20243;-66
2023/01/02 03:29:20;;;;;;;10.87;4.13;;;;;;;13.60;65.90;100547.16;5036174;28;20223;-68
2023/01/02 03:31:54;;;;;;;9.27;4.73;;;;;;;13.57;66.22;100547.50;5037793;28;20217;-68
2023/01/02 03:34:26;;;;;;;15.37;4.60;;;;;;;13.51;66.00;100548.16;5035359;28;20306;-68
2023/01/02 03:36:58;;;;;;;10.20;3.90;;;;;;;13.49;66.10;100550.16;5031137;28;20229;-66
2023/01/02 03:39:31;;;;;;;11.90;4.40;;;;;;;13.44;66.40;100552.47;5034740;28;20221;-67
2023/01/02 03:42:04;;;;;;;10.83;4.63;;;;;;;13.43;66.56;100553.47;5029863;28;20224;-66
2023/01/02 03:44:39;;;;;;;11.37;4.10;;;;;;;13.47;66.28;100549.47;5034462;28;20197;-68
2023/01/02 03:47:21;;;;;;;9.57;3.90;;;;;;;13.49;66.08;100553.66;5032182;28;20874;-68
2023/01/02 03:49:54;;;;;;;13.03;4.47;;;;;;;13.46;66.06;100555.78;5036060;28;21406;-68
2023/01/02 03:52:22;;;;;;;11.80;3.90;;;;;;;13.45;65.92;100555.00;5033324;28;20213;-66
2023/01/02 03:54:54;;;;;;;11.57;4.17;;;;;;;13.47;66.09;100555.63;5034876;28;20206;-69
2023/01/02 03:57:32;;;;;;;8.37;3.90;;;;;;;13.48;65.88;100559.13;5035886;28;20297;-69
2023/01/02 04:00:05;;;;;;;11.93;4.23;;;;;;;13.52;66.32;100549.81;5036951;28;20232;-69
2023/01/02 04:02:39;;;;;;;11.03;3.60;;;;;;;13.54;65.68;100547.84;5034279;28;20657;-66
2023/01/02 04:05:14;;;;;;;11.23;3.70;;;;;;;13.57;65.93;100555.47;5026301;28;20770;-66
2023/01/02 04:07:51;;;;;;;8.47;4.40;;;;;;;13.56;66.45;100561.81;5029545;28;20205;-66
2023/01/02 04:10:20;;;;;;;10.60;3.73;;;;;;;13.57;66.97;100571.47;5035374;28;20217;-66
2023/01/02 04:12:52;;;;;;;10.37;3.90;;;;;;;13.58;67.00;100581.13;5034494;28;20219;-68
2023/01/02 04:15:24;;;;;;;8.53;4.20;;;;;;;13.56;67.43;100578.63;5035220;28;20264;-69
2023/01/02 04:18:00;;;;;;;14.40;4.10;;;;;;;13.57;67.38;100574.13;5032656;28;20214;-69
2023/01/02 04:20:30;;;;;;;8.00;3.63;;;;;;;13.61;66.86;100570.16;5033816;28;20222;-68
2023/01/02 04:23:04;;;;;;;11.20;4.23;;;;;;;13.54;66.61;100563.81;5041788;28;20216;-69
2023/01/02 04:25:41;;;;;;;7.80;3.87;;;;;;;13.43;67.05;100582.78;5033330;28;20330;-67
2023/01/02 04:28:16;;;;;;;8.43;4.50;;;;;;;13.43;67.25;100583.63;5036658;28;20648;-69
2023/01/02 04:30:49;;;;;;;11.57;4.27;;;;;;;13.40;67.03;100583.94;5037228;28;20311;-69
2023/01/02 04:33:20;;;;;;;11.87;3.90;;;;;;;13.36;66.93;100589.75;5033630;28;20217;-68
2023/01/02 04:35:48;;;;;;;13.57;4.43;;;;;;;13.41;67.72;100574.09;5035820;28;20949;-67
2023/01/02 04:38:16;;;;;;;9.50;5.20;;;;;;;13.41;67.65;100571.44;5039927;28;20586;-68
2023/01/02 04:40:44;;;;;;;11.87;4.13;;;;;;;13.37;68.11;100562.94;5042947;28;20620;-66
2023/01/02 04:43:17;;;;;;;8.40;4.10;;;;;;;13.35;68.16;100559.63;5040110;28;20700;-68
2023/01/02 04:45:47;;;;;;;12.87;4.07;;;;;;;13.31;68.58;100555.59;5036969;28;20232;-67
2023/01/02 04:48:15;;;;;;;12.40;3.90;;;;;;;13.28;68.45;100555.94;5035230;28;20208;-68
2023/01/02 04:50:44;;;;;;;10.57;3.90;;;;;;;13.28;68.01;100555.94;5036272;28;20217;-68
2023/01/02 04:53:12;;;;;;;13.27;4.40;;;;;;;13.27;67.15;100566.78;5036327;28;20214;-66
2023/01/02 04:55:40;;;;;;;14.33;4.20;;;;;;;13.30;67.38;100572.59;5036123;28;20224;-68
2023/01/02 04:58:08;;;;;;;8.03;3.63;;;;;;;13.27;67.14;100578.25;5035962;28;20219;-66
2023/01/02 05:00:36;;;;;;;8.40;3.83;;;;;;;13.24;66.75;100572.41;5035615;28;20211;-67
2023/01/02 05:03:04;;;;;;;11.03;3.77;;;;;;;13.21;66.40;100575.38;5035799;28;21028;-67
2023/01/02 05:05:32;;;;;;;11.47;4.37;;;;;;;13.16;67.08;100575.88;5034197;28;20216;-68
2023/01/02 05:08:01;;;;;;;11.00;4.47;;;;;;;13.22;67.42;100579.72;5034830;28;20272;-65
2023/01/02 05:10:29;;;;;;;11.47;3.90;;;;;;;13.28;67.87;100579.09;5035965;28;20216;-66
2023/01/02 05:12:58;;;;;;;10.13;4.27;;;;;;;13.28;67.99;100581.75;5034268;28;20216;-66
2023/01/02 05:15:26;;;;;;;12.50;4.40;;;;;;;13.23;68.59;100587.56;5033593;28;20214;-67
2023/01/02 05:17:53;;;;;;;9.87;4.47;;;;;;;13.21;68.54;100591.38;5036075;28;20207;-68
2023/01/02 05:20:21;;;;;;;12.40;4.30;;;;;;;13.19;68.88;100597.69;5032278;28;20275;-67
2023/01/02 05:25:36;;;;;;;12.87;4.77;;;;;;;13.21;68.32;100600.19;5034738;28;20251;-66
2023/01/02 05:28:04;;;;;;;11.37;4.07;;;;;;;13.24;67.98;100605.19;5036205;28;20589;-67
2023/01/02 05:30:32;;;;;;;10.57;4.33;;;;;;;13.29;67.97;100610.03;5051924;28;20211;-65
2023/01/02 05:32:59;;;;;;;10.07;3.87;;;;;;;13.33;67.22;100619.38;5053404;28;20231;-67
2023/01/02 05:35:27;;;;;;;11.10;3.97;;;;;;;13.37;67.26;100626.06;5050754;28;20206;-66
2023/01/02 05:38:00;;;;;;;10.83;4.37;;;;;;;13.43;67.17;100622.72;5057871;28;20206;-67
2023/01/02 05:40:27;;;;;;;9.33;4.20;;;;;;;13.44;67.08;100621.75;5042921;28;20321;-68
2023/01/02 05:42:57;;;;;;;12.63;4.63;;;;;;;13.46;66.72;100625.88;5053341;28;20212;-70
2023/01/02 05:45:25;;;;;;;10.47;3.97;;;;;;;13.38;66.79;100622.38;5056749;28;20227;-69
2023/01/02 05:47:53;;;;;;;9.83;3.67;;;;;;;13.32;66.95;100625.69;5058011;28;20234;-66
2023/01/02 05:50:21;;;;;;;12.43;4.10;;;;;;;13.30;66.27;100625.00;5053891;28;20232;-68
2023/01/02 05:52:49;;;;;;;9.97;4.23;;;;;;;13.29;66.30;100620.69;5056333;28;20583;-69
2023/01/02 05:55:17;;;;;;;9.67;4.20;;;;;;;13.28;66.51;100621.69;5056145;28;20285;-68
2023/01/02 05:57:45;;;;;;;11.40;4.20;;;;;;;13.32;66.34;100621.19;5057386;28;20537;-69
2023/01/02 06:00:15;;;;;;;8.10;4.30;;;;;;;13.34;66.65;100616.56;5061226;28;20223;-68
2023/01/02 06:02:43;;;;;;;9.40;4.43;;;;;;;13.39;65.96;100624.03;5063063;28;20200;-68
2023/01/02 06:05:15;;;;;;;9.20;4.47;;;;;;;13.37;65.44;100628.72;5059298;28;20211;-67
2023/01/02 06:07:43;;;;;;;8.67;3.67;;;;;;;13.35;64.78;100630.69;5055718;28;20219;-66
2023/01/02 06:10:10;;;;;;;11.20;3.80;;;;;;;13.39;64.61;100624.88;5053976;28;20205;-68
2023/01/02 06:12:38;;;;;;;8.90;3.90;;;;;;;13.36;64.48;100629.72;5053744;28;20306;-65
2023/01/02 06:15:07;;;;;;;8.60;3.97;;;;;;;13.27;64.64;100644.84;5054222;28;20218;-68
2023/01/02 06:17:36;;;;;;;7.00;3.00;;;;;;;13.30;64.69;100646.31;5056607;28;20205;-66
2023/01/02 06:20:05;;;;;;;10.07;3.50;;;;;;;13.33;64.91;100646.00;5053432;28;20303;-66
2023/01/02 06:22:33;;;;;;;10.70;3.97;;;;;;;13.39;64.86;100643.53;5050542;28;20700;-67
2023/01/02 06:25:01;;;;;;;10.43;3.03;;;;;;;13.41;64.25;100643.38;5051057;28;20243;-68
2023/01/02 06:27:31;;;;;;;10.13;3.53;;;;;;;13.40;63.98;100641.69;5029623;28;20233;-67
2023/01/02 06:29:58;;;;;;;8.43;3.50;;;;;;;13.37;64.13;100647.38;5035064;28;20239;-66
2023/01/02 06:32:26;;;;;;;6.37;3.23;;;;;;;13.39;64.26;100645.34;5031885;28;20208;-68
2023/01/02 06:34:55;;;;;;;9.03;3.57;;;;;;;13.38;64.50;100649.84;5031220;28;20906;-67
2023/01/02 06:37:23;;;;;;;6.67;3.10;;;;;;;13.43;64.23;100652.03;5034111;28;20258;-69
2023/01/02 06:39:50;;;;;;;10.20;3.57;;;;;;;13.47;63.94;100661.34;5032148;28;20213;-68
2023/01/02 06:42:18;;;;;;;7.97;3.80;;;;;;;13.48;63.66;100657.69;5034381;28;20213;-68
2023/01/02 06:44:46;;;;;;;11.30;4.10;;;;;;;13.45;63.67;100655.38;5032643;28;20748;-68
2023/01/02 06:47:13;;;;;;;13.90;4.30;;;;;;;13.45;63.82;100652.72;5034615;28;20233;-65
2023/01/02 06:49:41;;;;;;;10.13;4.40;;;;;;;13.40;64.50;100647.84;5033802;28;20626;-67
2023/01/02 06:52:10;;;;;;;11.33;3.83;;;;;;;13.39;64.08;100646.19;5027650;28;20913;-66
2023/01/02 06:54:38;;;;;;;9.60;3.70;;;;;;;13.35;64.07;100644.84;5034234;28;20212;-66
2023/01/02 06:57:06;;;;;;;11.63;3.60;;;;;;;13.32;63.78;100650.50;5036450;28;20209;-71
2023/01/02 06:59:33;;;;;;;9.57;4.17;;;;;;;13.33;64.04;100646.00;5034523;28;20208;-68
2023/01/02 07:02:01;;;;;;;15.60;4.70;;;;;;;13.23;64.47;100651.47;5037832;28;20215;-67
2023/01/02 07:04:29;;;;;;;9.97;4.13;;;;;;;13.18;64.26;100654.63;5025170;28;20212;-68
2023/01/02 07:06:57;;;;;;;9.57;4.00;;;;;;;13.16;64.56;100666.41;5025255;28;20257;-67
2023/01/02 07:09:26;;;;;;;10.03;3.70;;;;;;;13.17;64.61;100660.09;5034934;28;20237;-68
2023/01/02 07:11:54;;;;;;;10.48;4.03;;;;;;;13.28;63.92;100666.97;5033793;28;20455;-61
2023/01/02 07:14:22;;;;;;;12.57;3.57;;;;;;;13.24;63.80;100662.94;5035696;28;20230;-62
2023/01/02 07:16:50;;;;;;;8.27;3.67;;;;;;;13.26;63.71;100667.13;5033617;28;20729;-62
2023/01/02 07:19:18;;;;;;;11.83;4.60;;;;;;;13.32;63.11;100660.31;5035364;28;20209;-60
2023/01/02 07:21:45;;;;;;;12.53;3.37;;;;;;;13.24;63.55;100657.63;5035451;28;20605;-61
2023/01/02 07:24:15;;;;;;;10.80;3.87;;;;;;;13.27;63.12;100665.31;5029113;28;20212;-62
2023/01/02 07:26:44;;;;;;;9.40;3.57;;;;;;;13.26;63.04;100669.78;5051772;28;20245;-61
2023/01/02 07:29:12;;;;;;;9.43;4.00;;;;;;;13.35;62.36;100665.34;5050174;28;20781;-62
2023/01/02 07:31:40;;;;;;;10.53;3.40;;;;;;;13.35;61.99;100673.31;5053285;28;21584;-61
2023/01/02 07:34:08;;;;;;;8.93;3.97;;;;;;;13.35;61.97;100673.31;5057419;28;20886;-60
2023/01/02 07:36:35;;;;;;;7.33;3.17;;;;;;;13.41;61.55;100680.66;5054739;28;20206;-60
2023/01/02 07:39:03;;;;;;;9.77;3.83;;;;;;;13.50;60.74;100690.34;5056433;28;20258;-60
2023/01/02 07:41:31;;;;;;;13.40;3.87;;;;;;;13.47;61.08;100688.81;5055317;28;20221;-60
2023/01/02 07:44:00;;;;;;;13.43;4.00;;;;;;;13.47;60.72;100694.16;5057574;28;20214;-60
2023/01/02 07:46:28;;;;;;;9.90;3.50;;;;;;;13.57;60.22;100694.03;5056131;28;20304;-59
2023/01/02 07:48:55;;;;;;;11.17;3.90;;;;;;;13.60;59.93;100695.53;5056362;28;20248;-61
2023/01/02 07:51:23;;;;;;;10.17;3.90;;;;;;;13.66;59.29;100698.38;5059670;28;21003;-60
2023/01/02 07:53:54;;;;;;;9.13;3.63;;;;;;;13.73;58.97;100693.22;5054362;28;20859;-60
2023/01/02 07:56:22;;;;;;;15.33;4.43;;;;;;;13.69;59.01;100694.56;5053658;28;20215;-61
2023/01/02 07:58:50;;;;;;;16.47;3.53;;;;;;;13.70;58.64;100697.06;5054053;28;20641;-61
2023/01/02 08:01:20;;;;;;;14.03;3.80;;;;;;;13.70;58.30;100686.41;5054383;28;20322;-61
2023/01/02 08:03:49;;;;;;;10.77;4.00;;;;;;;13.68;58.12;100683.06;5054562;28;20676;-61
2023/01/02 08:06:18;;;;;;;8.83;3.90;;;;;;;13.79;57.75;100689.94;5057376;28;20251;-61
2023/01/02 08:08:46;;;;;;;12.70;4.83;;;;;;;13.81;57.23;100688.75;5057563;28;20228;-62
2023/01/02 08:11:16;;;;;;;10.27;3.90;;;;;;;13.79;57.27;100696.09;5058061;28;20209;-60
2023/01/02 08:13:44;;;;;;;12.43;3.57;;;;;;;13.84;56.87;100692.94;5062376;28;20631;-61
2023/01/02 08:16:13;;;;;;;25.53;3.40;;;;;;;13.90;56.35;100694.94;5058347;28;20219;-65
2023/01/02 08:18:42;;;;;;;12.70;3.57;;;;;;;13.96;55.84;100712.13;5061316;28;20272;-63
2023/01/02 08:21:11;;;;;;;14.67;3.83;;;;;;;14.00;55.45;100713.44;5061927;28;20296;-61
2023/01/02 08:23:39;;;;;;;13.03;3.17;;;;;;;14.05;56.20;100722.63;5059005;28;20610;-60
2023/01/02 08:26:09;;;;;;;11.57;2.87;;;;;;;14.12;55.55;100725.47;5058994;28;20291;-61
2023/01/02 08:28:38;;;;;;;11.50;3.17;;;;;;;14.17;55.83;100725.78;5064147;28;20234;-61
2023/01/02 08:31:09;;;;;;;15.20;3.90;;;;;;;14.22;55.33;100734.16;5060187;28;20214;-61
2023/01/02 08:33:37;;;;;;;11.47;3.40;;;;;;;14.21;55.66;100733.31;5060091;28;20349;-60
2023/01/02 08:36:08;;;;;;;11.67;3.73;;;;;;;14.27;55.51;100747.81;5061512;28;21170;-61
2023/01/02 08:38:35;;;;;;;17.27;3.90;;;;;;;14.26;56.70;100748.81;5063220;28;20199;-61
2023/01/02 08:41:03;;;;;;;13.27;3.43;;;;;;;14.29;56.19;100751.16;5060708;28;20234;-62
2023/01/02 08:43:34;;;;;;;16.47;3.73;;;;;;;14.38;54.88;100733.31;5060933;28;20218;-60
2023/01/02 08:46:04;;;;;;;13.30;3.53;;;;;;;14.37;55.09;100751.16;5060972;28;20239;-60
2023/01/02 08:48:32;;;;;;;14.57;2.80;;;;;;;14.32;55.96;100757.00;5059892;28;20326;-61
2023/01/02 08:50:59;;;;;;;9.07;3.53;;;;;;;14.37;55.87;100739.66;5062109;28;20302;-60
2023/01/02 08:53:28;;;;;;;12.97;3.00;;;;;;;14.38;55.71;100750.16;5060175;28;20236;-61
2023/01/02 08:56:18;;;;;;;12.50;3.07;;;;;;;14.38;55.26;100749.34;5060810;28;20685;-61
2023/01/02 08:58:53;;;;;;;15.70;3.83;;;;;;;14.38;55.10;100755.50;5060711;28;20204;-61
2023/01/02 09:01:21;;;;;;;15.77;3.53;;;;;;;14.37;56.21;100753.00;5059709;28;20215;-62
2023/01/02 09:03:50;;;;;;;9.50;4.07;;;;;;;14.39;56.79;100764.38;5061663;28;20203;-61
2023/01/02 09:06:17;;;;;;;13.87;3.17;;;;;;;14.41;55.75;100763.22;5057091;28;20216;-61
2023/01/02 09:08:51;;;;;;;19.27;2.90;;;;;;;14.45;55.29;100761.88;5060075;28;20235;-61
2023/01/02 09:11:21;;;;;;;10.53;2.60;;;;;;;14.43;55.07;100769.19;5062269;28;20231;-61
2023/01/02 09:13:49;;;;;;;13.30;3.33;;;;;;;14.43;55.42;100771.88;5063572;28;20207;-62
2023/01/02 09:16:17;;;;;;;10.20;2.80;;;;;;;14.48;55.37;100777.56;5061694;28;20301;-61
2023/01/02 09:18:44;;;;;;;14.57;3.63;;;;;;;14.56;55.14;100774.91;5059969;28;20212;-60
2023/01/02 09:21:12;;;;;;;15.83;3.40;;;;;;;14.58;55.89;100778.25;5058519;28;20219;-60
2023/01/02 09:23:40;;;;;;;8.07;3.10;;;;;;;14.63;56.40;100775.88;5058656;28;20214;-60
2023/01/02 09:26:12;;;;;;;14.90;3.07;;;;;;;14.72;55.55;100778.56;5057602;28;20242;-62
2023/01/02 09:28:40;;;;;;;11.50;3.00;;;;;;;14.80;55.77;100776.72;5058561;28;20249;-61
2023/01/02 09:31:11;;;;;;;14.87;2.77;;;;;;;14.88;55.47;100784.72;5059208;28;20211;-62
2023/01/02 09:33:39;;;;;;;16.67;3.73;;;;;;;14.92;56.57;100801.25;5057038;28;20208;-61
2023/01/02 09:36:09;;;;;;;12.07;3.10;;;;;;;14.97;57.42;100796.22;5060558;28;20207;-61
2023/01/02 09:38:37;;;;;;;9.53;2.87;;;;;;;15.00;56.65;100809.25;5061084;28;20991;-60
2023/01/02 09:41:11;;;;;;;14.87;3.60;;;;;;;15.04;55.87;100813.22;5061308;28;20203;-60
2023/01/02 09:43:48;;;;;;;11.17;3.47;;;;;;;15.02;56.62;100812.59;5063605;28;20208;-62
2023/01/02 09:46:23;;;;;;;13.40;3.63;;;;;;;15.11;56.23;100816.94;5056883;28;20654;-60
2023/01/02 09:48:51;;;;;;;12.97;3.47;;;;;;;15.25;56.53;100826.91;5061135;28;20227;-61
2023/01/02 09:51:20;;;;;;;10.77;2.97;;;;;;;15.37;55.93;100827.41;5063549;28;20222;-60
2023/01/02 09:53:48;;;;;;;15.50;3.60;;;;;;;15.54;55.48;100826.38;5061754;28;20831;-60
2023/01/02 09:56:21;;;;;;;13.27;3.13;;;;;;;15.53;54.35;100816.66;5063608;28;20204;-61
2023/01/02 09:58:59;;;;;;;18.27;3.50;;;;;;;15.62;53.39;100820.16;5058453;28;20207;-61
2023/01/02 10:01:32;;;;;;;10.30;2.70;;;;;;;15.54;52.91;100831.72;5059395;28;20252;-62
2023/01/02 10:04:15;;;;;;;12.33;2.47;;;;;;;15.54;52.93;100822.88;5059953;28;20539;-61
2023/01/02 10:06:50;;;;;;;11.50;2.60;;;;;;;15.50;52.96;100832.19;5064928;28;20314;-61
2023/01/02 10:09:22;;;;;;;13.37;2.83;;;;;;;15.54;53.03;100839.75;5061236;28;20225;-61
2023/01/02 10:12:00;;;;;;;9.77;2.07;;;;;;;15.55;54.08;100833.41;5058578;28;20337;-61
2023/01/02 10:14:41;;;;;;;14.50;3.00;;;;;;;15.58;53.41;100833.03;5059870;28;20207;-61
2023/01/02 10:17:14;;;;;;;7.90;2.47;;;;;;;15.64;53.66;100836.88;5059585;28;20290;-62
2023/01/02 10:19:47;;;;;;;12.53;2.70;;;;;;;15.65;54.21;100842.06;5057720;28;20208;-61
2023/01/02 10:22:20;;;;;;;21.40;3.63;;;;;;;15.66;53.87;100842.88;5059949;28;20683;-62
2023/01/02 10:24:57;;;;;;;10.73;2.67;;;;;;;15.69;54.14;100839.84;5057279;28;20247;-61
2023/01/02 10:27:35;;;;;;;15.30;2.80;;;;;;;15.63;54.10;100852.09;5056280;28;20257;-64
2023/01/02 10:30:14;;;;;;;8.60;2.57;;;;;;;15.66;54.50;100848.22;5056012;28;20683;-62
2023/01/02 10:32:47;;;;;;;13.13;2.20;;;;;;;15.70;54.88;100845.03;5056787;28;20207;-62
2023/01/02 10:35:29;;;;;;;15.47;2.43;;;;;;;15.70;54.50;100838.84;5052841;28;20217;-61
2023/01/02 10:37:57;;;;;;;11.10;2.50;;;;;;;15.69;54.98;100848.72;5054733;28;20260;-62
2023/01/02 10:40:25;;;;;;;12.57;2.57;;;;;;;15.66;55.19;100845.53;5056613;28;20200;-63
2023/01/02 10:42:55;;;;;;;8.53;2.37;;;;;;;15.64;55.92;100855.59;5056196;28;20212;-63
2023/01/02 10:45:28;;;;;;;9.93;2.10;;;;;;;15.63;55.77;100838.72;5059567;28;20209;-62
2023/01/02 10:47:56;;;;;;;11.77;2.20;;;;;;;15.51;55.81;100852.56;5062158;28;20308;-60
2023/01/02 10:50:29;;;;;;;10.87;2.30;;;;;;;15.48;56.38;100845.72;5063232;28;20725;-63
2023/01/02 10:53:06;;;;;;;12.03;2.53;;;;;;;15.51;56.22;100839.22;5061592;28;20199;-62
2023/01/02 10:55:38;;;;;;;13.17;1.73;;;;;;;15.48;56.85;100840.38;5061799;28;20203;-61
2023/01/02 10:58:07;;;;;;;9.40;2.20;;;;;;;15.47;56.78;100843.25;5060336;28;20269;-60
2023/01/02 11:00:37;;;;;;;8.43;2.57;;;;;;;15.47;57.30;100832.56;5059136;28;20464;-61
2023/01/02 11:03:15;;;;;;;8.10;2.50;;;;;;;15.47;57.31;100840.56;5060308;28;20218;-62
2023/01/02 11:05:48;;;;;;;7.97;2.10;;;;;;;15.49;57.50;100846.56;5060188;28;20264;-62
2023/01/02 11:08:18;;;;;;;7.37;2.73;;;;;;;15.49;57.78;100842.03;5059854;28;20207;-61
2023/01/02 11:10:46;;;;;;;7.70;2.17;;;;;;;15.51;57.92;100855.25;5057737;28;20231;-62
2023/01/02 11:13:16;;;;;;;8.70;2.50;;;;;;;15.53;58.31;100854.06;5058881;28;20216;-60
2023/01/02 11:15:50;;;;;;;9.50;2.40;;;;;;;15.60;58.15;100855.09;5056890;28;20239;-62
2023/01/02 11:18:22;;;;;;;12.30;2.00;;;;;;;15.48;58.23;100855.59;5057769;28;20208;-62
2023/01/02 11:20:52;;;;;;;11.37;2.57;;;;;;;15.49;58.21;100850.06;5059767;28;20695;-61
2023/01/02 11:23:24;;;;;;;7.50;2.20;;;;;;;15.47;58.95;100862.78;5061463;28;20266;-61
2023/01/02 11:25:54;;;;;;;8.63;2.07;;;;;;;15.48;58.98;100868.97;5058139;28;20645;-60
2023/01/02 11:28:26;;;;;;;6.50;2.00;;;;;;;15.50;59.07;100877.63;5059345;28;20218;-61
2023/01/02 11:31:02;;;;;;;7.53;2.10;;;;;;;15.52;59.48;100867.59;5059763;28;20325;-61
2023/01/02 11:33:33;;;;;;;10.03;2.00;;;;;;;15.52;59.64;100872.94;5062655;28;20215;-62
2023/01/02 11:36:14;;;;;;;7.70;2.87;;;;;;;15.45;60.10;100878.16;5057161;28;20227;-61
2023/01/02 11:38:44;;;;;;;8.40;2.33;;;;;;;15.46;60.28;100884.31;5061729;28;20227;-61